createdAt,value
2017-07-30T00:00:58.921Z,9.50
2017-07-30T00:03:26.521Z,9.53
2017-07-30T00:05:54.178Z,9.60
2017-07-30T00:08:21.809Z,8.67
2017-07-30T00:10:49.420Z,10.03
2017-07-30T00:13:17.317Z,9.23
2017-07-30T00:15:44.874Z,10.60
2017-07-30T00:18:12.426Z,10.13
2017-07-30T00:20:39.976Z,9.80
2017-07-30T00:23:07.541Z,9.40
2017-07-30T00:25:35.392Z,9.23
2017-07-30T00:28:02.960Z,9.83
2017-07-30T00:30:30.513Z,8.90
2017-07-30T00:32:58.092Z,9.33
2017-07-30T00:35:25.643Z,10.67
2017-07-30T00:37:53.507Z,9.33
2017-07-30T00:40:21.042Z,9.40
2017-07-30T00:42:48.567Z,9.73
2017-07-30T00:45:16.130Z,8.93
2017-07-30T00:47:44.432Z,10.10
2017-07-30T00:50:12.433Z,9.50
2017-07-30T00:52:39.970Z,9.63
2017-07-30T00:55:07.505Z,8.87
2017-07-30T00:57:35.082Z,10.00
2017-07-30T01:00:02.623Z,9.90
2017-07-30T01:02:30.461Z,9.10
2017-07-30T01:04:58.012Z,8.23
2017-07-30T01:07:25.545Z,8.60
2017-07-30T01:09:53.158Z,9.53
2017-07-30T01:12:20.685Z,9.70
2017-07-30T01:14:48.557Z,9.47
2017-07-30T01:17:16.096Z,9.13
2017-07-30T01:19:43.654Z,8.97
2017-07-30T01:22:11.214Z,9.70
2017-07-30T01:24:38.745Z,9.03
2017-07-30T01:27:06.601Z,9.17
2017-07-30T01:29:34.990Z,8.90
2017-07-30T01:32:02.537Z,8.80
2017-07-30T01:34:30.118Z,8.77
2017-07-30T01:36:57.638Z,8.57
2017-07-30T01:39:25.470Z,8.33
2017-07-30T01:41:53.005Z,8.63
2017-07-30T01:44:20.543Z,8.20
2017-07-30T01:46:48.144Z,9.87
2017-07-30T01:49:15.702Z,8.57
2017-07-30T01:51:43.552Z,9.00
2017-07-30T01:54:11.087Z,8.80
2017-07-30T01:56:38.604Z,8.53
2017-07-30T01:59:06.180Z,8.30
2017-07-30T02:01:33.740Z,9.00
2017-07-30T02:04:01.557Z,8.93
2017-07-30T02:06:29.084Z,8.07
2017-07-30T02:08:56.605Z,8.93
2017-07-30T02:11:24.167Z,8.70
2017-07-30T02:13:51.682Z,8.40
2017-07-30T02:16:19.525Z,8.57
2017-07-30T02:18:47.181Z,8.13
2017-07-30T02:21:14.752Z,9.10
2017-07-30T02:23:42.376Z,8.40
2017-07-30T02:26:10.822Z,8.47
2017-07-30T02:28:39.644Z,9.00
2017-07-30T02:31:07.265Z,10.30
2017-07-30T02:33:34.857Z,8.90
2017-07-30T02:36:02.526Z,10.10
2017-07-30T02:38:30.040Z,8.70
2017-07-30T02:40:58.624Z,9.00
2017-07-30T02:43:26.929Z,8.90
2017-07-30T02:45:54.465Z,11.10
2017-07-30T02:48:22.025Z,10.20
2017-07-30T02:50:49.722Z,10.00
2017-07-30T02:53:17.624Z,10.50
2017-07-30T02:55:45.158Z,9.93
2017-07-30T02:58:12.722Z,8.67
2017-07-30T03:00:40.273Z,9.17
2017-07-30T03:03:07.844Z,8.60
2017-07-30T03:05:35.727Z,9.87
2017-07-30T03:08:03.256Z,9.40
2017-07-30T03:10:30.777Z,9.20
2017-07-30T03:12:58.369Z,8.37
2017-07-30T03:15:25.927Z,8.70
2017-07-30T03:17:54.555Z,9.30
2017-07-30T03:20:22.120Z,8.83
2017-07-30T03:22:49.663Z,9.07
2017-07-30T03:25:17.250Z,8.23
2017-07-30T03:27:44.783Z,8.80
2017-07-30T03:30:12.657Z,8.10
2017-07-30T03:32:40.190Z,9.67
2017-07-30T03:35:07.746Z,9.10
2017-07-30T03:37:35.293Z,8.27
2017-07-30T03:40:03.609Z,9.47
2017-07-30T03:42:31.579Z,8.93
2017-07-30T03:44:59.107Z,8.77
2017-07-30T03:47:26.673Z,8.97
2017-07-30T03:49:54.233Z,10.03
2017-07-30T03:52:21.787Z,9.07
2017-07-30T03:54:50.354Z,9.60
2017-07-30T03:57:17.900Z,10.20
2017-07-30T03:59:45.425Z,9.87
2017-07-30T04:02:13.091Z,9.13
2017-07-30T04:04:40.654Z,9.33
2017-07-30T04:07:08.527Z,9.60
2017-07-30T04:09:36.096Z,10.17
2017-07-30T04:12:03.625Z,10.03
2017-07-30T04:14:31.184Z,9.13
2017-07-30T04:16:58.719Z,9.50
2017-07-30T04:19:26.643Z,9.50
2017-07-30T04:21:54.164Z,9.50
2017-07-30T04:24:21.693Z,9.07
2017-07-30T04:26:50.054Z,8.70
2017-07-30T04:29:17.588Z,9.90
2017-07-30T04:31:45.479Z,8.63
2017-07-30T04:34:13.038Z,10.20
2017-07-30T04:36:40.553Z,8.73
2017-07-30T04:39:08.154Z,8.83
2017-07-30T04:41:35.726Z,9.90
2017-07-30T04:44:03.810Z,8.93
2017-07-30T04:46:31.383Z,9.17
2017-07-30T04:48:58.959Z,9.20
2017-07-30T04:51:26.579Z,8.70
2017-07-30T04:53:54.122Z,9.93
2017-07-30T04:56:22.097Z,9.40
2017-07-30T04:58:49.627Z,9.00
2017-07-30T05:01:17.183Z,8.60
2017-07-30T05:03:44.780Z,9.10
2017-07-30T05:06:12.317Z,9.20
2017-07-30T05:08:40.208Z,8.90
2017-07-30T05:11:07.757Z,12.60
2017-07-30T05:13:35.306Z,9.40
2017-07-30T05:16:02.872Z,9.03
2017-07-30T05:18:30.447Z,9.07
2017-07-30T05:20:58.318Z,8.57
2017-07-30T05:23:25.855Z,8.50
2017-07-30T05:25:53.401Z,8.50
2017-07-30T05:28:20.975Z,8.83
2017-07-30T05:30:48.514Z,8.20
2017-07-30T05:33:16.529Z,8.27
2017-07-30T05:35:44.037Z,7.90
2017-07-30T05:38:11.593Z,8.00
2017-07-30T05:40:39.936Z,7.77
2017-07-30T05:43:08.311Z,7.77
2017-07-30T05:45:36.153Z,8.57
2017-07-30T05:48:03.691Z,7.10
2017-07-30T05:50:31.229Z,7.10
2017-07-30T05:52:59.574Z,7.70
2017-07-30T05:55:27.089Z,7.70
2017-07-30T05:57:54.928Z,7.67
2017-07-30T06:00:22.458Z,6.90
2017-07-30T06:02:51.034Z,6.90
2017-07-30T06:05:18.589Z,7.33
2017-07-30T06:07:46.164Z,6.77
2017-07-30T06:10:14.034Z,7.03
2017-07-30T06:12:41.602Z,7.17
2017-07-30T06:15:09.200Z,7.13
2017-07-30T06:17:36.819Z,6.13
2017-07-30T06:20:04.396Z,6.80
2017-07-30T06:22:33.097Z,6.43
2017-07-30T06:25:00.670Z,7.63
2017-07-30T06:27:28.268Z,6.57
2017-07-30T06:29:55.846Z,6.43
2017-07-30T06:32:23.545Z,7.10
2017-07-30T06:34:52.681Z,6.63
2017-07-30T06:37:20.227Z,6.60
2017-07-30T06:39:48.391Z,6.50
2017-07-30T06:42:16.727Z,7.00
2017-07-30T06:44:44.367Z,6.13
2017-07-30T06:47:12.267Z,6.10
2017-07-30T06:49:39.808Z,5.63
2017-07-30T06:52:07.337Z,6.73
2017-07-30T06:54:34.921Z,7.00
2017-07-30T06:57:02.467Z,6.50
2017-07-30T06:59:30.372Z,5.43
2017-07-30T07:01:57.891Z,6.57
2017-07-30T07:04:25.445Z,6.97
2017-07-30T07:06:53.021Z,5.87
2017-07-30T07:09:20.589Z,5.40
2017-07-30T07:11:48.466Z,5.90
2017-07-30T07:14:16.010Z,6.30
2017-07-30T07:16:43.540Z,6.20
2017-07-30T07:19:11.093Z,6.23
2017-07-30T07:21:38.609Z,6.33
2017-07-30T07:24:06.450Z,5.97
2017-07-30T07:26:34.004Z,12.63
2017-07-30T07:29:01.542Z,5.43
2017-07-30T07:31:29.136Z,6.40
2017-07-30T07:33:56.669Z,5.70
2017-07-30T07:36:24.543Z,5.90
2017-07-30T07:38:52.854Z,7.40
2017-07-30T07:41:20.420Z,7.30
2017-07-30T07:43:48.033Z,5.57
2017-07-30T07:46:15.575Z,6.53
2017-07-30T07:48:43.507Z,5.87
2017-07-30T07:51:11.085Z,5.67
2017-07-30T07:53:38.622Z,6.43
2017-07-30T07:56:06.194Z,5.70
2017-07-30T07:58:33.737Z,5.80
2017-07-30T08:01:01.594Z,5.40
2017-07-30T08:03:29.120Z,5.60
2017-07-30T08:05:56.653Z,5.77
2017-07-30T08:08:24.248Z,4.87
2017-07-30T08:10:52.568Z,5.40
2017-07-30T08:13:20.416Z,5.40
2017-07-30T08:15:47.944Z,5.00
2017-07-30T08:18:15.469Z,5.03
2017-07-30T08:20:43.051Z,5.70
2017-07-30T08:23:10.587Z,4.80
2017-07-30T08:25:38.502Z,4.40
2017-07-30T08:28:06.055Z,5.00
2017-07-30T08:30:33.623Z,4.30
2017-07-30T08:33:02.037Z,4.13
2017-07-30T08:35:29.640Z,5.80
2017-07-30T08:37:57.639Z,3.50
2017-07-30T08:40:25.242Z,3.40
2017-07-30T08:42:52.796Z,3.40
2017-07-30T08:45:20.360Z,3.40
2017-07-30T08:47:47.928Z,3.70
2017-07-30T08:50:15.833Z,3.70
2017-07-30T08:52:43.407Z,3.50
2017-07-30T08:55:10.944Z,3.20
2017-07-30T08:57:38.486Z,4.30
2017-07-30T09:00:06.057Z,3.30
2017-07-30T09:02:33.900Z,3.40
2017-07-30T09:05:01.438Z,3.20
2017-07-30T09:07:28.999Z,3.60
2017-07-30T09:09:56.599Z,2.90
2017-07-30T09:12:24.135Z,4.10
2017-07-30T09:14:52.124Z,3.13
2017-07-30T09:17:19.652Z,3.80
2017-07-30T09:19:48.062Z,4.67
2017-07-30T09:22:15.642Z,3.60
2017-07-30T09:24:43.197Z,3.80
2017-07-30T09:27:11.017Z,3.40
2017-07-30T09:29:38.620Z,3.67
2017-07-30T09:32:06.224Z,3.90
2017-07-30T09:34:33.813Z,4.33
2017-07-30T09:37:01.421Z,3.43
2017-07-30T09:39:29.369Z,3.83
2017-07-30T09:41:56.935Z,3.00
2017-07-30T09:44:24.448Z,3.40
2017-07-30T09:46:51.992Z,3.00
2017-07-30T09:49:20.310Z,3.23
2017-07-30T09:51:48.198Z,3.40
2017-07-30T09:54:15.723Z,3.80
2017-07-30T09:56:43.332Z,3.20
2017-07-30T09:59:10.874Z,3.13
2017-07-30T10:01:38.447Z,3.10
2017-07-30T10:04:06.423Z,3.60
2017-07-30T10:06:34.757Z,3.50
2017-07-30T10:09:02.511Z,2.87
2017-07-30T10:11:30.077Z,3.23
2017-07-30T10:13:57.679Z,3.20
2017-07-30T10:16:25.554Z,3.87
2017-07-30T10:18:53.112Z,4.03
2017-07-30T10:21:20.667Z,3.27
2017-07-30T10:23:48.258Z,6.00
2017-07-30T10:26:15.774Z,3.40
2017-07-30T10:28:43.703Z,2.30
2017-07-30T10:31:11.239Z,2.33
2017-07-30T10:33:38.813Z,2.40
2017-07-30T10:36:06.375Z,2.43
2017-07-30T10:38:34.826Z,2.80
2017-07-30T10:41:03.442Z,2.47
2017-07-30T10:43:31.760Z,3.20
2017-07-30T10:45:59.577Z,3.40
2017-07-30T10:48:27.145Z,5.37
2017-07-30T10:50:54.680Z,3.03
2017-07-30T10:53:22.538Z,2.93
2017-07-30T10:55:50.102Z,3.13
2017-07-30T10:58:17.660Z,3.20
2017-07-30T11:00:45.269Z,3.43
2017-07-30T11:03:12.851Z,2.83
2017-07-30T11:05:40.853Z,4.00
2017-07-30T11:08:08.412Z,3.40
2017-07-30T11:10:35.930Z,3.27
2017-07-30T11:13:03.507Z,10.70
2017-07-30T11:15:31.076Z,3.77
2017-07-30T11:17:59.004Z,3.30
2017-07-30T11:20:26.566Z,3.57
2017-07-30T11:22:54.927Z,3.90
2017-07-30T11:25:23.267Z,3.50
2017-07-30T11:27:50.796Z,3.30
2017-07-30T11:30:18.713Z,3.63
2017-07-30T11:32:46.257Z,3.60
2017-07-30T11:35:14.744Z,3.40
2017-07-30T11:37:42.297Z,3.77
2017-07-30T11:40:09.847Z,3.50
2017-07-30T11:42:37.789Z,3.70
2017-07-30T11:45:05.317Z,4.30
2017-07-30T11:47:32.866Z,4.67
2017-07-30T11:50:00.443Z,4.70
2017-07-30T11:52:27.978Z,4.00
2017-07-30T11:54:55.855Z,4.30
2017-07-30T11:57:23.454Z,3.60
2017-07-30T11:59:50.999Z,4.10
2017-07-30T12:02:18.557Z,4.10
2017-07-30T12:04:46.115Z,5.20
2017-07-30T12:07:13.999Z,4.00
2017-07-30T12:09:42.287Z,4.00
2017-07-30T12:12:10.594Z,4.80
2017-07-30T12:14:38.188Z,4.20
2017-07-30T12:17:05.724Z,4.20
2017-07-30T12:19:33.637Z,3.90
2017-07-30T12:22:01.963Z,4.20
2017-07-30T12:24:29.537Z,3.97
2017-07-30T12:26:57.104Z,3.93
2017-07-30T12:29:24.629Z,4.00
2017-07-30T12:31:52.478Z,4.57
2017-07-30T12:34:20.931Z,4.27
2017-07-30T12:36:48.461Z,5.00
2017-07-30T12:39:16.068Z,4.93
2017-07-30T12:41:44.402Z,4.13
2017-07-30T12:44:12.256Z,4.60
2017-07-30T12:46:39.802Z,4.07
2017-07-30T12:49:07.372Z,4.00
2017-07-30T12:51:34.946Z,3.90
2017-07-30T12:54:02.500Z,3.60
2017-07-30T12:56:30.377Z,3.87
2017-07-30T12:58:57.902Z,3.30
2017-07-30T13:01:25.442Z,4.03
2017-07-30T13:03:52.984Z,3.70
2017-07-30T13:06:20.500Z,2.93
2017-07-30T13:08:48.316Z,4.07
2017-07-30T13:11:16.640Z,5.10
2017-07-30T13:13:44.177Z,3.60
2017-07-30T13:16:12.485Z,3.57
2017-07-30T13:18:40.221Z,4.17
2017-07-30T13:21:08.864Z,2.80
2017-07-30T13:23:36.420Z,3.50
2017-07-30T13:26:03.964Z,3.30
2017-07-30T13:28:31.539Z,3.57
2017-07-30T13:30:59.109Z,3.53
2017-07-30T13:33:26.978Z,3.20
2017-07-30T13:35:54.523Z,3.47
2017-07-30T13:38:22.083Z,3.50
2017-07-30T13:40:49.657Z,3.30
2017-07-30T13:43:17.176Z,3.30
2017-07-30T13:45:45.003Z,3.37
2017-07-30T13:48:12.549Z,3.70
2017-07-30T13:50:40.099Z,3.90
2017-07-30T13:53:07.686Z,2.97
2017-07-30T13:55:35.193Z,2.47
2017-07-30T13:58:03.240Z,2.63
2017-07-30T14:00:30.807Z,3.30
2017-07-30T14:02:58.337Z,3.67
2017-07-30T14:05:25.909Z,2.80
2017-07-30T14:07:53.485Z,6.10
2017-07-30T14:10:22.111Z,2.87
2017-07-30T14:12:49.655Z,3.10
2017-07-30T14:15:17.182Z,2.53
2017-07-30T14:17:45.526Z,2.90
2017-07-30T14:20:13.051Z,2.67
2017-07-30T14:22:40.871Z,2.40
2017-07-30T14:25:08.454Z,2.70
2017-07-30T14:27:35.984Z,2.50
2017-07-30T14:30:03.913Z,2.40
2017-07-30T14:32:31.466Z,2.90
2017-07-30T14:34:59.369Z,3.50
2017-07-30T14:37:26.910Z,2.70
2017-07-30T14:39:54.432Z,2.50
2017-07-30T14:42:22.763Z,2.40
2017-07-30T14:44:50.333Z,2.90
2017-07-30T14:47:18.185Z,2.53
2017-07-30T14:49:45.737Z,2.30
2017-07-30T14:52:13.256Z,2.50
2017-07-30T14:54:40.808Z,2.57
2017-07-30T14:57:08.455Z,2.30
2017-07-30T14:59:36.316Z,2.33
2017-07-30T15:02:03.910Z,2.20
2017-07-30T15:04:32.199Z,2.50
2017-07-30T15:07:00.534Z,2.27
2017-07-30T15:09:28.080Z,3.23
2017-07-30T15:11:55.949Z,3.47
2017-07-30T15:14:23.504Z,2.67
2017-07-30T15:16:51.033Z,2.57
2017-07-30T15:19:18.612Z,2.70
2017-07-30T15:21:46.184Z,2.57
2017-07-30T15:24:14.017Z,2.40
2017-07-30T15:26:42.332Z,2.57
2017-07-30T15:29:09.870Z,2.50
2017-07-30T15:31:37.438Z,2.37
2017-07-30T15:34:04.968Z,2.70
2017-07-30T15:36:33.583Z,2.67
2017-07-30T15:39:01.121Z,2.53
2017-07-30T15:41:28.637Z,2.50
2017-07-30T15:43:56.244Z,2.60
2017-07-30T15:46:23.790Z,2.80
2017-07-30T15:48:52.408Z,2.77
2017-07-30T15:51:19.959Z,2.57
2017-07-30T15:53:47.526Z,2.30
2017-07-30T15:56:15.118Z,2.90
2017-07-30T15:58:42.731Z,2.87
2017-07-30T16:01:10.621Z,3.00
2017-07-30T16:03:38.173Z,3.10
2017-07-30T16:06:05.729Z,2.47
2017-07-30T16:08:33.316Z,2.80
2017-07-30T16:11:00.852Z,2.53
2017-07-30T16:13:28.774Z,3.33
2017-07-30T16:15:56.318Z,3.10
2017-07-30T16:18:23.869Z,3.33
2017-07-30T16:20:51.527Z,2.40
2017-07-30T16:23:19.087Z,2.60
2017-07-30T16:25:47.109Z,2.80
2017-07-30T16:28:15.431Z,2.90
2017-07-30T16:30:42.956Z,3.00
2017-07-30T16:33:10.548Z,3.10
2017-07-30T16:35:38.096Z,3.47
2017-07-30T16:38:05.988Z,3.80
2017-07-30T16:40:33.566Z,2.73
2017-07-30T16:43:01.136Z,3.30
2017-07-30T16:45:28.692Z,3.37
2017-07-30T16:47:56.211Z,3.10
2017-07-30T16:50:24.125Z,3.77
2017-07-30T16:52:51.670Z,3.30
2017-07-30T16:55:19.232Z,3.17
2017-07-30T16:57:46.834Z,3.60
2017-07-30T17:00:14.385Z,2.67
2017-07-30T17:02:42.441Z,3.00
2017-07-30T17:05:09.995Z,2.93
2017-07-30T17:07:37.551Z,3.13
2017-07-30T17:10:05.138Z,4.10
2017-07-30T17:12:32.691Z,3.80
2017-07-30T17:15:00.543Z,4.77
2017-07-30T17:17:28.092Z,3.70
2017-07-30T17:19:55.618Z,3.67
2017-07-30T17:22:23.225Z,3.77
2017-07-30T17:24:50.777Z,3.97
2017-07-30T17:27:18.648Z,4.20
2017-07-30T17:29:46.170Z,3.80
2017-07-30T17:32:13.721Z,3.97
2017-07-30T17:34:41.317Z,4.13
2017-07-30T17:37:08.845Z,3.37
2017-07-30T17:39:36.698Z,4.10
2017-07-30T17:42:04.318Z,3.43
2017-07-30T17:44:31.905Z,4.00
2017-07-30T17:46:59.513Z,4.70
2017-07-30T17:49:27.046Z,3.40
2017-07-30T17:51:54.977Z,3.67
2017-07-30T17:54:22.548Z,3.40
2017-07-30T17:56:50.077Z,3.30
2017-07-30T17:59:17.655Z,3.73
2017-07-30T18:01:45.249Z,4.00
2017-07-30T18:04:13.865Z,4.77
2017-07-30T18:06:41.413Z,3.63
2017-07-30T18:09:08.942Z,3.90
2017-07-30T18:11:36.493Z,3.67
2017-07-30T18:14:04.048Z,3.57
2017-07-30T18:16:31.913Z,4.10
2017-07-30T18:18:59.442Z,4.17
2017-07-30T18:21:26.967Z,4.70
2017-07-30T18:23:55.311Z,3.60
2017-07-30T18:26:22.838Z,4.43
2017-07-30T18:28:50.690Z,4.20
2017-07-30T18:31:18.254Z,4.60
2017-07-30T18:33:45.816Z,4.23
2017-07-30T18:36:13.395Z,4.40
2017-07-30T18:38:40.973Z,4.23
2017-07-30T18:41:08.842Z,3.93
2017-07-30T18:43:36.440Z,4.93
2017-07-30T18:46:04.751Z,5.30
2017-07-30T18:48:32.353Z,3.80
2017-07-30T18:50:59.913Z,4.70
2017-07-30T18:53:27.770Z,5.27
2017-07-30T18:55:55.315Z,5.30
2017-07-30T18:58:23.668Z,4.00
2017-07-30T19:00:51.305Z,4.67
2017-07-30T19:03:19.615Z,4.10
2017-07-30T19:05:48.198Z,4.80
2017-07-30T19:08:15.801Z,3.83
2017-07-30T19:10:43.378Z,4.10
2017-07-30T19:13:10.958Z,4.57
2017-07-30T19:15:39.289Z,4.63
2017-07-30T19:18:07.150Z,4.33
2017-07-30T19:20:34.790Z,4.67
2017-07-30T19:23:02.336Z,5.50
2017-07-30T19:25:30.716Z,5.30
2017-07-30T19:27:58.261Z,5.10
2017-07-30T19:30:26.135Z,4.07
2017-07-30T19:32:54.497Z,4.70
2017-07-30T19:35:22.041Z,9.87
2017-07-30T19:37:49.679Z,5.30
2017-07-30T19:40:17.291Z,4.70
2017-07-30T19:42:45.246Z,4.97
2017-07-30T19:45:12.836Z,4.20
2017-07-30T19:47:41.178Z,5.57
2017-07-30T19:50:08.781Z,4.63
2017-07-30T19:52:37.266Z,4.93
2017-07-30T19:55:05.131Z,3.83
2017-07-30T19:57:33.469Z,4.33
2017-07-30T20:00:01.007Z,4.73
2017-07-30T20:02:28.597Z,4.43
2017-07-30T20:04:56.948Z,4.47
2017-07-30T20:07:24.848Z,4.13
2017-07-30T20:09:52.417Z,4.00
2017-07-30T20:12:20.033Z,4.87
2017-07-30T20:14:47.631Z,4.77
2017-07-30T20:17:15.231Z,4.40
2017-07-30T20:19:43.197Z,4.30
2017-07-30T20:22:10.822Z,4.40
2017-07-30T20:24:38.444Z,5.23
2017-07-30T20:27:06.125Z,4.50
2017-07-30T20:29:33.660Z,4.40
2017-07-30T20:32:01.589Z,5.17
2017-07-30T20:34:29.133Z,4.57
2017-07-30T20:36:56.703Z,4.17
2017-07-30T20:39:24.280Z,4.90
2017-07-30T20:41:52.622Z,5.10
2017-07-30T20:44:20.479Z,4.83
2017-07-30T20:46:48.090Z,4.97
2017-07-30T20:49:15.635Z,5.00
2017-07-30T20:51:44.211Z,5.97
2017-07-30T20:54:11.772Z,4.60
2017-07-30T20:56:39.645Z,4.87
2017-07-30T20:59:07.972Z,4.47
2017-07-30T21:01:35.528Z,5.00
2017-07-30T21:04:03.112Z,4.77
2017-07-30T21:06:30.662Z,5.90
2017-07-30T21:08:58.543Z,5.00
2017-07-30T21:11:26.142Z,5.00
2017-07-30T21:13:53.707Z,4.47
2017-07-30T21:16:22.111Z,4.20
2017-07-30T21:18:49.661Z,4.50
2017-07-30T21:21:18.259Z,4.10
2017-07-30T21:23:45.793Z,4.80
2017-07-30T21:26:13.358Z,4.53
2017-07-30T21:28:40.926Z,4.20
2017-07-30T21:31:09.245Z,5.00
2017-07-30T21:33:37.076Z,4.80
2017-07-30T21:36:05.418Z,4.20
2017-07-30T21:38:32.971Z,4.30
2017-07-30T21:41:00.605Z,4.63
2017-07-30T21:43:28.136Z,4.40
2017-07-30T21:45:56.783Z,5.27
2017-07-30T21:48:24.329Z,5.47
2017-07-30T21:50:51.885Z,4.47
2017-07-30T21:53:19.483Z,4.77
2017-07-30T21:55:47.020Z,4.90
2017-07-30T21:58:14.887Z,5.00
2017-07-30T22:00:42.436Z,4.60
2017-07-30T22:03:09.998Z,4.53
2017-07-30T22:05:37.579Z,4.47
2017-07-30T22:08:05.105Z,5.10
2017-07-30T22:10:32.963Z,4.73
2017-07-30T22:13:00.515Z,4.77
2017-07-30T22:15:28.059Z,4.90
2017-07-30T22:17:56.409Z,4.70
2017-07-30T22:20:23.994Z,4.87
2017-07-30T22:22:52.629Z,5.43
2017-07-30T22:25:20.190Z,4.47
2017-07-30T22:27:47.815Z,4.70
2017-07-30T22:30:15.620Z,5.90
2017-07-30T22:32:43.164Z,4.67
2017-07-30T22:35:11.029Z,5.37
2017-07-30T22:37:38.571Z,4.90
2017-07-30T22:40:06.887Z,5.20
2017-07-30T22:42:34.512Z,4.40
2017-07-30T22:45:02.053Z,5.50
2017-07-30T22:47:30.653Z,4.93
2017-07-30T22:49:58.950Z,5.10
2017-07-30T22:52:26.483Z,4.90
2017-07-30T22:54:54.044Z,4.77
2017-07-30T22:57:22.336Z,4.93
2017-07-30T22:59:50.185Z,4.40
2017-07-30T23:02:18.470Z,4.60
2017-07-30T23:04:46.007Z,3.93
2017-07-30T23:07:13.564Z,4.83
2017-07-30T23:09:41.098Z,4.70
2017-07-30T23:12:09.008Z,4.20
2017-07-30T23:14:36.567Z,4.33
2017-07-30T23:17:04.887Z,4.50
2017-07-30T23:19:32.454Z,3.87
2017-07-30T23:21:59.989Z,4.80
2017-07-30T23:24:28.619Z,5.03
2017-07-30T23:26:56.155Z,4.97
2017-07-30T23:29:23.675Z,4.27
2017-07-30T23:31:52.027Z,4.90
2017-07-30T23:34:19.556Z,5.10
2017-07-30T23:36:47.557Z,4.57
2017-07-30T23:39:15.070Z,4.07
2017-07-30T23:41:42.617Z,4.70
2017-07-30T23:44:10.226Z,4.43
2017-07-30T23:46:37.757Z,4.50
2017-07-30T23:49:05.659Z,4.60
2017-07-30T23:51:33.222Z,4.50
2017-07-30T23:54:00.770Z,5.07
2017-07-30T23:56:28.334Z,4.23
2017-07-30T23:58:55.913Z,4.20
